createdAt,value
2024-01-09T00:00:25.165Z,96.15
2024-01-09T00:02:52.777Z,96.56
2024-01-09T00:05:20.171Z,96.60
2024-01-09T00:07:47.499Z,95.93
2024-01-09T00:10:14.751Z,95.98
2024-01-09T00:12:43.507Z,96.56
2024-01-09T00:15:10.998Z,96.70
2024-01-09T00:17:38.463Z,97.28
2024-01-09T00:20:06.886Z,97.56
2024-01-09T00:22:35.508Z,96.80
2024-01-09T00:25:03.240Z,96.88
2024-01-09T00:27:30.712Z,97.92
2024-01-09T00:29:59.435Z,97.55
2024-01-09T00:32:27.125Z,98.37
2024-01-09T00:34:54.700Z,99.27
2024-01-09T00:37:22.044Z,99.60
2024-01-09T00:39:49.832Z,100.00
2024-01-09T00:42:17.164Z,100.00
2024-01-09T00:44:45.319Z,100.00
2024-01-09T00:47:14.267Z,100.00
2024-01-09T00:49:41.810Z,100.00
2024-01-09T00:52:09.346Z,100.00
2024-01-09T00:54:36.699Z,100.00
2024-01-09T00:57:04.605Z,100.00
2024-01-09T00:59:32.007Z,100.00
2024-01-09T01:01:59.341Z,100.00
2024-01-09T01:04:28.100Z,100.00
2024-01-09T01:06:55.901Z,100.00
2024-01-09T01:09:23.382Z,100.00
2024-01-09T01:11:50.741Z,100.00
2024-01-09T01:14:18.148Z,100.00
2024-01-09T01:16:45.551Z,100.00
2024-01-09T01:19:13.007Z,100.00
2024-01-09T01:21:41.719Z,100.00
2024-01-09T01:24:09.132Z,100.00
2024-01-09T01:26:36.537Z,100.00
2024-01-09T01:29:04.267Z,100.00
2024-01-09T01:31:31.699Z,100.00
2024-01-09T01:33:59.032Z,100.00
2024-01-09T01:36:26.441Z,100.00
2024-01-09T01:38:55.319Z,100.00
2024-01-09T01:41:22.757Z,100.00
2024-01-09T01:43:50.073Z,100.00
2024-01-09T01:46:17.620Z,100.00
2024-01-09T01:48:45.195Z,100.00
2024-01-09T01:51:12.702Z,100.00
2024-01-09T01:53:40.172Z,100.00
2024-01-09T01:56:09.000Z,100.00
2024-01-09T01:58:37.270Z,100.00
2024-01-09T02:01:05.656Z,100.00
2024-01-09T02:03:33.074Z,100.00
2024-01-09T02:06:00.766Z,100.00
2024-01-09T02:08:30.110Z,100.00
2024-01-09T02:10:57.546Z,100.00
2024-01-09T02:13:26.299Z,100.00
2024-01-09T02:15:53.628Z,100.00
2024-01-09T02:18:21.135Z,100.00
2024-01-09T02:20:48.665Z,100.00
2024-01-09T02:23:16.185Z,100.00
2024-01-09T02:25:43.911Z,100.00
2024-01-09T02:28:17.060Z,100.00
2024-01-09T02:30:46.685Z,100.00
2024-01-09T02:33:15.323Z,100.00
2024-01-09T02:35:43.101Z,100.00
2024-01-09T02:38:10.538Z,100.00
2024-01-09T02:40:37.955Z,100.00
2024-01-09T02:43:05.803Z,100.00
2024-01-09T02:45:33.127Z,100.00
2024-01-09T02:48:01.932Z,100.00
2024-01-09T02:50:29.348Z,100.00
2024-01-09T02:52:56.732Z,100.00
2024-01-09T02:55:24.084Z,100.00
2024-01-09T02:57:51.396Z,100.00
2024-01-09T03:00:19.429Z,100.00
2024-01-09T03:02:46.949Z,100.00
2024-01-09T03:05:16.200Z,100.00
2024-01-09T03:07:43.461Z,100.00
2024-01-09T03:10:10.821Z,100.00
2024-01-09T03:12:38.216Z,100.00
2024-01-09T03:15:07.122Z,100.00
2024-01-09T03:17:34.625Z,100.00
2024-01-09T03:20:02.056Z,100.00
2024-01-09T03:22:30.755Z,100.00
2024-01-09T03:24:58.046Z,100.00
2024-01-09T03:27:27.693Z,100.00
2024-01-09T03:29:55.079Z,100.00
2024-01-09T03:32:22.360Z,100.00
2024-01-09T03:34:49.737Z,100.00
2024-01-09T03:37:17.074Z,100.00
2024-01-09T03:39:47.274Z,100.00
2024-01-09T03:42:14.912Z,100.00
2024-01-09T03:44:42.264Z,100.00
2024-01-09T03:47:09.601Z,100.00
2024-01-09T03:49:37.069Z,100.00
2024-01-09T03:52:05.094Z,100.00
2024-01-09T03:54:32.467Z,100.00
2024-01-09T03:57:01.146Z,100.00
2024-01-09T03:59:28.492Z,100.00
2024-01-09T04:01:56.320Z,100.00
2024-01-09T04:04:24.752Z,100.00
2024-01-09T04:06:53.515Z,100.00
2024-01-09T04:12:51.408Z,100.00
2024-01-09T04:15:19.185Z,100.00
2024-01-09T04:17:46.537Z,100.00
2024-01-09T04:20:14.530Z,100.00
2024-01-09T04:22:41.846Z,100.00
2024-01-09T04:25:09.227Z,100.00
2024-01-09T04:27:36.623Z,100.00
2024-01-09T04:30:07.047Z,100.00
2024-01-09T04:32:34.453Z,100.00
2024-01-09T04:35:01.845Z,100.00
2024-01-09T04:37:29.228Z,100.00
2024-01-09T04:39:56.687Z,100.00
2024-01-09T04:42:24.098Z,100.00
2024-01-09T04:44:51.706Z,100.00
2024-01-09T04:47:20.754Z,100.00
2024-01-09T04:49:48.112Z,100.00
2024-01-09T04:52:15.616Z,100.00
2024-01-09T04:54:43.194Z,100.00
2024-01-09T04:57:10.522Z,100.00
2024-01-09T04:59:38.202Z,100.00
2024-01-09T05:02:05.773Z,100.00
2024-01-09T05:04:34.565Z,100.00
2024-01-09T05:07:01.813Z,100.00
2024-01-09T05:09:29.205Z,100.00
2024-01-09T05:11:56.576Z,100.00
2024-01-09T05:14:23.974Z,100.00
2024-01-09T05:16:51.280Z,100.00
2024-01-09T05:19:18.669Z,100.00
2024-01-09T05:21:47.587Z,100.00
2024-01-09T05:24:14.910Z,100.00
2024-01-09T05:26:42.368Z,100.00
2024-01-09T05:29:09.740Z,100.00
2024-01-09T05:31:43.036Z,100.00
2024-01-09T05:34:10.508Z,100.00
2024-01-09T05:36:37.815Z,100.00
2024-01-09T05:39:06.567Z,100.00
2024-01-09T05:41:33.920Z,100.00
2024-01-09T05:44:01.243Z,100.00
2024-01-09T05:46:28.649Z,100.00
2024-01-09T05:48:56.279Z,100.00
2024-01-09T05:51:23.734Z,100.00
2024-01-09T05:53:51.814Z,100.00
2024-01-09T05:56:20.814Z,100.00
2024-01-09T05:58:48.359Z,100.00
2024-01-09T06:01:15.783Z,100.00
2024-01-09T06:03:43.120Z,100.00
2024-01-09T06:06:10.688Z,100.00
2024-01-09T06:08:38.175Z,100.00
2024-01-09T06:11:06.049Z,100.00
2024-01-09T06:13:34.804Z,100.00
2024-01-09T06:16:02.105Z,100.00
2024-01-09T06:18:29.523Z,100.00
2024-01-09T06:20:57.161Z,100.00
2024-01-09T06:23:24.580Z,100.00
2024-01-09T06:25:51.917Z,100.00
2024-01-09T06:28:19.262Z,100.00
2024-01-09T06:30:48.330Z,99.83
2024-01-09T06:33:15.790Z,100.00
2024-01-09T06:35:43.375Z,100.00
2024-01-09T06:38:10.848Z,100.00
2024-01-09T06:40:38.191Z,100.00
2024-01-09T06:43:05.504Z,100.00
2024-01-09T06:45:32.885Z,100.00
2024-01-09T06:48:01.607Z,100.00
2024-01-09T06:50:36.806Z,100.00
2024-01-09T06:53:06.054Z,100.00
2024-01-09T06:55:33.436Z,100.00
2024-01-09T06:58:00.678Z,100.00
2024-01-09T07:00:27.938Z,100.00
2024-01-09T07:02:55.378Z,100.00
2024-01-09T07:05:24.297Z,100.00
2024-01-09T07:07:51.749Z,100.00
2024-01-09T07:10:19.482Z,100.00
2024-01-09T07:12:46.915Z,100.00
2024-01-09T07:15:14.605Z,100.00
2024-01-09T07:17:42.813Z,100.00
2024-01-09T07:20:11.485Z,100.00
2024-01-09T07:22:42.455Z,100.00
2024-01-09T07:25:11.403Z,100.00
2024-01-09T07:27:38.648Z,100.00
2024-01-09T07:30:07.803Z,100.00
2024-01-09T07:32:35.267Z,100.00
2024-01-09T07:35:03.159Z,100.00
2024-01-09T07:37:30.551Z,100.00
2024-01-09T07:39:59.362Z,100.00
2024-01-09T07:42:26.976Z,100.00
2024-01-09T07:44:57.091Z,99.94
2024-01-09T07:47:24.563Z,100.00
2024-01-09T07:49:51.953Z,100.00
2024-01-09T07:52:20.140Z,100.00
2024-01-09T07:54:47.662Z,100.00
2024-01-09T07:57:22.173Z,100.00
2024-01-09T07:59:50.376Z,100.00
2024-01-09T08:02:17.921Z,100.00
2024-01-09T08:04:45.292Z,100.00
2024-01-09T08:07:12.632Z,100.00
2024-01-09T08:09:39.870Z,100.00
2024-01-09T08:12:07.468Z,100.00
2024-01-09T08:14:36.208Z,100.00
2024-01-09T08:17:03.916Z,100.00
2024-01-09T08:19:31.400Z,100.00
2024-01-09T08:21:58.784Z,100.00
2024-01-09T08:24:26.151Z,100.00
2024-01-09T08:26:53.635Z,100.00
2024-01-09T08:29:20.959Z,100.00
2024-01-09T08:31:50.341Z,100.00
2024-01-09T08:34:18.109Z,100.00
2024-01-09T08:36:46.017Z,99.74
2024-01-09T08:39:13.524Z,99.83
2024-01-09T08:41:40.997Z,99.96
2024-01-09T08:44:08.591Z,99.67
2024-01-09T08:46:35.993Z,99.58
2024-01-09T08:49:05.084Z,95.88
2024-01-09T08:51:32.518Z,96.38
2024-01-09T08:53:59.929Z,97.41
2024-01-09T08:56:27.372Z,96.04
2024-01-09T08:58:54.837Z,94.24
2024-01-09T09:01:22.637Z,93.51
2024-01-09T09:03:50.170Z,93.27
2024-01-09T09:06:19.329Z,91.65
2024-01-09T09:08:46.834Z,91.87
2024-01-09T09:11:14.231Z,91.13
2024-01-09T09:13:41.722Z,91.63
2024-01-09T09:16:09.401Z,89.38
2024-01-09T09:18:37.233Z,88.78
2024-01-09T09:21:05.565Z,89.20
2024-01-09T09:23:34.621Z,86.34
2024-01-09T09:26:01.938Z,84.03
2024-01-09T09:28:37.075Z,81.91
2024-01-09T09:31:12.815Z,72.89
2024-01-09T09:33:42.596Z,65.88
2024-01-09T09:36:12.433Z,65.61
2024-01-09T09:38:41.159Z,67.10
2024-01-09T09:41:08.673Z,65.55
2024-01-09T09:43:36.123Z,61.08
2024-01-09T09:46:06.286Z,60.22
2024-01-09T09:48:34.990Z,60.18
2024-01-09T09:51:02.910Z,63.62
2024-01-09T09:53:30.354Z,65.66
2024-01-09T09:55:59.302Z,68.63
2024-01-09T09:58:26.882Z,66.00
2024-01-09T10:00:57.742Z,62.00
2024-01-09T10:03:32.175Z,56.15
2024-01-09T10:06:04.184Z,52.13
2024-01-09T10:08:35.081Z,50.68
2024-01-09T10:11:04.106Z,47.46
2024-01-09T10:13:31.559Z,46.60
2024-01-09T10:16:16.172Z,49.13
2024-01-09T10:18:43.596Z,52.60
2024-01-09T10:21:11.331Z,56.42
2024-01-09T10:23:39.458Z,56.64
2024-01-09T10:26:11.502Z,59.19
2024-01-09T10:28:39.995Z,58.66
2024-01-09T10:31:09.478Z,61.63
2024-01-09T10:33:39.612Z,62.05
2024-01-09T10:36:07.644Z,60.82
2024-01-09T10:38:35.113Z,56.03
2024-01-09T10:41:16.426Z,49.10
2024-01-09T10:43:44.103Z,45.13
2024-01-09T10:46:11.742Z,46.90
2024-01-09T10:48:41.516Z,44.75
2024-01-09T10:51:11.760Z,42.54
2024-01-09T10:53:40.230Z,41.40
2024-01-09T10:56:10.106Z,42.13
2024-01-09T10:58:39.757Z,39.35
2024-01-09T11:01:07.104Z,40.00
2024-01-09T11:03:34.509Z,37.62
2024-01-09T11:06:04.378Z,36.93
2024-01-09T11:08:34.935Z,35.54
2024-01-09T11:11:04.473Z,36.28
2024-01-09T11:13:33.952Z,36.20
2024-01-09T11:16:05.444Z,38.29
2024-01-09T11:18:33.924Z,37.78
2024-01-09T11:21:01.439Z,38.87
2024-01-09T11:23:50.959Z,40.96
2024-01-09T11:26:18.377Z,44.04
2024-01-09T11:28:45.716Z,46.18
2024-01-09T11:31:17.085Z,47.79
2024-01-09T11:33:44.613Z,47.17
2024-01-09T11:36:12.251Z,44.55
2024-01-09T11:38:39.736Z,42.48
2024-01-09T11:41:09.714Z,39.68
2024-01-09T11:44:02.183Z,40.69
2024-01-09T11:46:32.920Z,40.57
2024-01-09T11:49:00.643Z,40.27
2024-01-09T11:51:28.649Z,41.17
2024-01-09T11:53:57.806Z,40.76
2024-01-09T11:56:25.802Z,38.97
2024-01-09T11:58:53.609Z,36.15
2024-01-09T12:01:21.776Z,38.73
2024-01-09T12:03:54.580Z,42.39
2024-01-09T12:06:23.117Z,46.47
2024-01-09T12:08:53.411Z,51.08
2024-01-09T12:11:21.277Z,49.54
2024-01-09T12:13:48.796Z,49.24
2024-01-09T12:16:17.957Z,48.80
2024-01-09T12:18:49.769Z,48.27
2024-01-09T12:21:19.140Z,42.43
2024-01-09T12:24:02.821Z,39.51
2024-01-09T12:26:35.387Z,38.02
2024-01-09T12:29:03.672Z,40.30
2024-01-09T12:31:31.025Z,38.39
2024-01-09T12:33:58.614Z,35.08
2024-01-09T12:36:27.441Z,33.81
2024-01-09T12:38:55.147Z,35.82
2024-01-09T12:41:22.736Z,35.71
2024-01-09T12:43:50.299Z,36.33
2024-01-09T12:46:17.813Z,37.25
2024-01-09T12:48:48.526Z,38.21
2024-01-09T12:51:16.095Z,41.73
2024-01-09T12:53:45.016Z,42.68
2024-01-09T12:56:13.762Z,43.68
2024-01-09T12:58:42.439Z,45.38
2024-01-09T13:01:09.819Z,46.38
2024-01-09T13:03:37.396Z,46.44
2024-01-09T13:06:05.784Z,45.91
2024-01-09T13:08:33.775Z,44.25
2024-01-09T13:11:03.224Z,46.14
2024-01-09T13:13:31.669Z,47.47
2024-01-09T13:15:59.247Z,48.02
2024-01-09T13:18:26.789Z,46.61
2024-01-09T13:20:54.255Z,47.06
2024-01-09T13:25:52.552Z,44.23
2024-01-09T13:28:21.270Z,46.65
2024-01-09T13:30:51.570Z,48.36
2024-01-09T13:33:20.205Z,44.29
2024-01-09T13:35:47.613Z,42.61
2024-01-09T13:38:15.002Z,40.31
2024-01-09T13:40:42.687Z,39.59
2024-01-09T13:43:09.945Z,40.31
2024-01-09T13:45:38.917Z,41.81
2024-01-09T13:48:07.371Z,41.01
2024-01-09T13:53:04.997Z,42.76
2024-01-09T13:55:32.346Z,44.19
2024-01-09T13:57:59.685Z,45.81
2024-01-09T14:00:28.069Z,50.63
2024-01-09T14:02:56.782Z,53.40
2024-01-09T14:05:24.618Z,55.31
2024-01-09T14:07:52.054Z,56.41
2024-01-09T14:10:19.590Z,56.18
2024-01-09T14:12:46.909Z,57.84
2024-01-09T14:15:14.491Z,57.69
2024-01-09T14:17:42.450Z,55.32
2024-01-09T14:20:13.188Z,58.22
2024-01-09T14:22:41.614Z,60.15
2024-01-09T14:25:09.119Z,60.68
2024-01-09T14:27:37.320Z,61.12
2024-01-09T14:30:06.256Z,62.48
2024-01-09T14:32:33.629Z,63.32
2024-01-09T14:35:01.014Z,62.21
2024-01-09T14:37:29.686Z,60.80
2024-01-09T14:39:57.019Z,57.99
2024-01-09T14:42:24.280Z,56.98
2024-01-09T14:44:51.578Z,56.92
2024-01-09T14:47:18.983Z,57.59
2024-01-09T14:49:46.328Z,58.71
2024-01-09T14:52:13.614Z,60.79
2024-01-09T14:54:42.346Z,64.50
2024-01-09T14:57:09.665Z,64.12
2024-01-09T14:59:36.944Z,64.31
2024-01-09T15:02:05.132Z,68.08
2024-01-09T15:04:32.488Z,68.65
2024-01-09T15:07:02.488Z,71.58
2024-01-09T15:09:30.337Z,73.81
2024-01-09T15:11:58.990Z,72.89
2024-01-09T15:14:26.383Z,73.05
2024-01-09T15:16:53.791Z,75.47
2024-01-09T15:19:21.417Z,73.04
2024-01-09T15:21:48.884Z,76.02
2024-01-09T15:24:16.277Z,76.77
2024-01-09T15:26:43.565Z,77.72
2024-01-09T15:29:12.283Z,78.37
2024-01-09T15:31:39.698Z,78.70
2024-01-09T15:34:07.403Z,75.96
2024-01-09T15:36:40.715Z,79.61
2024-01-09T15:39:08.049Z,77.90
2024-01-09T15:41:35.720Z,80.56
2024-01-09T15:44:03.071Z,81.33
2024-01-09T15:46:31.761Z,80.27
2024-01-09T15:48:59.100Z,82.24
2024-01-09T15:51:26.767Z,82.72
2024-01-09T15:53:54.116Z,82.13
2024-01-09T15:56:22.968Z,82.75
2024-01-09T15:58:50.463Z,83.51
2024-01-09T16:01:18.538Z,81.96
2024-01-09T16:03:47.458Z,80.14
2024-01-09T16:06:15.023Z,82.84
2024-01-09T16:08:43.433Z,84.30
2024-01-09T16:11:10.939Z,85.80
2024-01-09T16:13:38.924Z,86.17
2024-01-09T16:16:15.021Z,85.00
2024-01-09T16:18:43.056Z,83.40
2024-01-09T16:21:12.206Z,84.67
2024-01-09T16:23:39.446Z,83.93
2024-01-09T16:26:06.865Z,85.15
2024-01-09T16:28:34.269Z,84.59
2024-01-09T16:31:02.910Z,84.36
2024-01-09T16:33:30.595Z,83.71
2024-01-09T16:35:57.888Z,85.27
2024-01-09T16:38:26.682Z,85.39
2024-01-09T16:40:54.259Z,85.48
2024-01-09T16:43:21.639Z,85.53
2024-01-09T16:45:49.013Z,85.90
2024-01-09T16:48:22.000Z,86.01
2024-01-09T16:50:56.226Z,88.72
2024-01-09T16:53:23.617Z,89.97
2024-01-09T16:55:52.396Z,90.50
2024-01-09T16:58:19.677Z,91.12
2024-01-09T17:00:47.088Z,91.83
2024-01-09T17:03:14.488Z,92.48
2024-01-09T17:05:42.159Z,90.18
2024-01-09T17:08:09.778Z,90.31
2024-01-09T17:10:37.411Z,90.45
2024-01-09T17:13:06.313Z,91.28
2024-01-09T17:15:33.815Z,91.31
2024-01-09T17:18:01.188Z,92.38
2024-01-09T17:20:28.558Z,89.56
2024-01-09T17:22:56.030Z,89.71
2024-01-09T17:25:23.402Z,88.97
2024-01-09T17:27:50.672Z,86.72
2024-01-09T17:30:19.465Z,87.90
2024-01-09T17:32:46.729Z,91.47
2024-01-09T17:35:14.563Z,91.81
2024-01-09T17:37:42.158Z,92.19
2024-01-09T17:40:10.381Z,91.97
2024-01-09T17:42:39.359Z,93.74
2024-01-09T17:45:07.933Z,93.04
2024-01-09T17:47:36.726Z,94.82
2024-01-09T17:50:04.824Z,94.95
2024-01-09T17:52:32.188Z,94.82
2024-01-09T17:54:59.412Z,95.80
2024-01-09T17:57:26.904Z,95.83
2024-01-09T18:02:46.864Z,94.04
2024-01-09T18:05:14.255Z,90.99
2024-01-09T18:07:41.634Z,91.52
2024-01-09T18:10:09.439Z,93.80
2024-01-09T18:12:36.727Z,92.41
2024-01-09T18:15:04.916Z,94.92
2024-01-09T18:17:32.234Z,95.83
2024-01-09T18:20:01.197Z,96.82
2024-01-09T18:22:28.753Z,97.70
2024-01-09T18:24:56.285Z,98.43
2024-01-09T18:27:23.649Z,98.40
2024-01-09T18:29:50.984Z,98.91
2024-01-09T18:32:19.005Z,100.00
2024-01-09T18:34:46.544Z,100.00
2024-01-09T18:37:15.339Z,98.72
2024-01-09T18:39:44.824Z,98.43
2024-01-09T18:42:12.135Z,95.46
2024-01-09T18:44:41.034Z,95.19
2024-01-09T18:47:08.362Z,97.63
2024-01-09T18:49:35.869Z,99.21
2024-01-09T18:52:03.677Z,98.37
2024-01-09T18:54:32.490Z,99.53
2024-01-09T18:56:59.826Z,100.00
2024-01-09T18:59:27.436Z,100.00
2024-01-09T19:01:54.754Z,100.00
2024-01-09T19:04:22.129Z,100.00
2024-01-09T19:06:49.531Z,99.88
2024-01-09T19:09:16.829Z,97.35
2024-01-09T19:11:45.606Z,96.69
2024-01-09T19:14:13.152Z,95.54
2024-01-09T19:16:41.553Z,95.59
2024-01-09T19:19:09.000Z,95.21
2024-01-09T19:21:41.783Z,96.87
2024-01-09T19:24:09.805Z,98.82
2024-01-09T19:26:38.100Z,98.96
2024-01-09T19:29:08.480Z,97.74
2024-01-09T19:31:41.205Z,96.72
2024-01-09T19:34:08.556Z,96.40
2024-01-09T19:36:35.928Z,96.74
2024-01-09T19:39:03.295Z,99.51
2024-01-09T19:41:30.764Z,97.03
2024-01-09T19:43:58.281Z,95.61
2024-01-09T19:46:27.289Z,95.73
2024-01-09T19:48:55.020Z,97.07
2024-01-09T19:51:22.274Z,99.32
2024-01-09T19:53:49.503Z,100.00
2024-01-09T19:56:26.671Z,100.00
2024-01-09T19:58:54.487Z,99.52
2024-01-09T20:01:21.901Z,97.45
2024-01-09T20:03:50.578Z,99.74
2024-01-09T20:06:18.939Z,97.53
2024-01-09T20:08:46.437Z,98.14
2024-01-09T20:11:22.420Z,98.21
2024-01-09T20:13:50.068Z,98.33
2024-01-09T20:16:17.384Z,97.95
2024-01-09T20:18:44.949Z,98.91
2024-01-09T20:21:13.764Z,99.97
2024-01-09T20:23:41.120Z,100.00
2024-01-09T20:26:08.476Z,99.18
2024-01-09T20:28:35.955Z,100.00
2024-01-09T20:31:03.640Z,99.89
2024-01-09T20:33:31.170Z,99.40
2024-01-09T20:35:59.564Z,99.82
2024-01-09T20:38:30.159Z,100.00
2024-01-09T20:40:58.734Z,100.00
2024-01-09T20:43:26.378Z,100.00
2024-01-09T20:45:56.281Z,100.00
2024-01-09T20:48:24.654Z,100.00
2024-01-09T20:50:52.095Z,100.00
2024-01-09T20:53:19.450Z,100.00
2024-01-09T20:55:48.527Z,100.00
2024-01-09T20:58:16.841Z,100.00
2024-01-09T21:00:44.246Z,100.00
2024-01-09T21:03:11.767Z,100.00
2024-01-09T21:05:39.293Z,100.00
2024-01-09T21:08:07.616Z,100.00
2024-01-09T21:10:38.748Z,100.00
2024-01-09T21:13:08.093Z,100.00
2024-01-09T21:15:35.485Z,100.00
2024-01-09T21:18:03.158Z,100.00
2024-01-09T21:20:30.589Z,100.00
2024-01-09T21:22:57.903Z,100.00
2024-01-09T21:25:25.267Z,100.00
2024-01-09T21:27:52.592Z,100.00
2024-01-09T21:30:24.640Z,100.00
2024-01-09T21:32:52.147Z,100.00
2024-01-09T21:35:19.805Z,100.00
2024-01-09T21:37:48.070Z,99.79
2024-01-09T21:40:15.451Z,97.76
2024-01-09T21:42:42.906Z,98.28
2024-01-09T21:45:11.319Z,100.00
2024-01-09T21:47:43.537Z,100.00
2024-01-09T21:50:12.476Z,100.00
2024-01-09T21:52:40.282Z,100.00
2024-01-09T21:55:09.318Z,100.00
2024-01-09T21:57:36.841Z,100.00
2024-01-09T22:00:05.254Z,100.00
2024-01-09T22:02:32.516Z,100.00
2024-01-09T22:05:01.304Z,100.00
2024-01-09T22:07:28.657Z,100.00
2024-01-09T22:09:56.071Z,100.00
2024-01-09T22:12:23.410Z,100.00
2024-01-09T22:14:50.741Z,100.00
2024-01-09T22:17:18.122Z,100.00
2024-01-09T22:19:45.520Z,100.00
2024-01-09T22:22:14.296Z,100.00
2024-01-09T22:24:41.559Z,100.00
2024-01-09T22:27:09.199Z,100.00
2024-01-09T22:29:36.570Z,100.00
2024-01-09T22:32:04.534Z,100.00
2024-01-09T22:34:31.814Z,100.00
2024-01-09T22:37:03.601Z,100.00
2024-01-09T22:39:32.316Z,100.00
2024-01-09T22:42:02.638Z,100.00
2024-01-09T22:44:29.958Z,100.00
2024-01-09T22:46:57.277Z,100.00
2024-01-09T22:49:24.655Z,100.00
2024-01-09T22:51:52.070Z,100.00
2024-01-09T22:54:19.328Z,100.00
2024-01-09T22:56:49.408Z,100.00
2024-01-09T22:59:16.788Z,100.00
2024-01-09T23:01:49.207Z,100.00
2024-01-09T23:04:16.614Z,100.00
2024-01-09T23:06:43.929Z,100.00
2024-01-09T23:09:11.238Z,100.00
2024-01-09T23:11:39.033Z,100.00
2024-01-09T23:14:08.092Z,100.00
2024-01-09T23:16:35.424Z,100.00
2024-01-09T23:19:03.050Z,100.00
2024-01-09T23:21:30.403Z,100.00
2024-01-09T23:23:57.670Z,100.00
2024-01-09T23:26:25.133Z,100.00
2024-01-09T23:28:52.579Z,100.00
2024-01-09T23:31:25.531Z,100.00
2024-01-09T23:33:56.016Z,100.00
2024-01-09T23:36:28.939Z,100.00
2024-01-09T23:38:56.398Z,100.00
2024-01-09T23:41:26.602Z,100.00
2024-01-09T23:43:54.064Z,100.00
2024-01-09T23:46:22.952Z,100.00
2024-01-09T23:48:50.455Z,100.00
2024-01-09T23:51:17.763Z,100.00
2024-01-09T23:53:45.048Z,100.00
2024-01-09T23:56:12.350Z,100.00
2024-01-09T23:58:39.657Z,100.00
